Terminal Aerodrome Forecast
Issued by NWS

Home | Current Version | Previous Version | Text Only | Print | Product List | Glossary On
Versions: 1 2 3 4 5 6 7 8 9 10 11 12 13
155
FTUS42 TJSJ 101123
TAFJBQ
TAF
TJBQ 101123Z 1012/1112 09010KT P6SM FEW025
     FM101500 07012KT P6SM SCT250
     FM101800 08010KT P6SM VCSH SCT030 BKN050
     FM102330 09005KT P6SM SCT035
      AMD NOT SKED 1102/1111=

USA.gov is the U.S. government's official web portal to all federal, state and local government web resources and services.